Time;durP1;ratioP1;P1;durP2;ratioP2;P2;SDS_P1;SDS_P2;PMS_P1;PMS_P2;Temp;Humidity;BMP_temperature;BMP_pressure;BME280_temperature;BME280_humidity;BME280_pressure;Samples;Min_cycle;Max_cycle;Signal;HPM_P1;HPM_P2
2022/02/14 00:01:41;;;;;;;9.27;7.80;;;-0.10;99.90;;;;;;6246837;23;20149;-81
2022/02/14 00:04:06;;;;;;;12.07;8.17;;;0.00;99.90;;;;;;6247537;23;20157;-81
2022/02/14 00:06:32;;;;;;;13.57;9.73;;;0.00;99.90;;;;;;6247422;23;20173;-81
2022/02/14 00:08:57;;;;;;;12.17;9.83;;;0.00;99.90;;;;;;6219582;23;20236;-82
2022/02/14 00:11:24;;;;;;;10.53;9.43;;;0.00;99.90;;;;;;6246839;23;20204;-81
2022/02/14 00:13:51;;;;;;;11.07;9.00;;;0.10;99.90;;;;;;6246923;23;20157;-81
2022/02/14 00:16:17;;;;;;;11.10;9.00;;;0.10;99.90;;;;;;6246843;23;20481;-81
2022/02/14 00:18:43;;;;;;;11.57;9.13;;;0.10;99.90;;;;;;6220090;23;20199;-80
2022/02/14 00:21:09;;;;;;;11.67;9.87;;;0.10;99.90;;;;;;6247627;23;20599;-81
2022/02/14 00:23:34;;;;;;;10.57;9.47;;;0.10;99.90;;;;;;6247736;23;20609;-80
2022/02/14 00:26:00;;;;;;;11.40;9.10;;;0.10;99.90;;;;;;6246862;22;20176;-80
2022/02/14 00:28:26;;;;;;;10.30;9.20;;;0.10;99.90;;;;;;6247167;23;20142;-81
2022/02/14 00:30:51;;;;;;;11.97;9.17;;;0.00;99.90;;;;;;6247129;23;20177;-81
2022/02/14 00:33:17;;;;;;;10.17;8.87;;;0.00;99.90;;;;;;6221236;23;20628;-81
2022/02/14 00:35:43;;;;;;;19.13;11.30;;;0.00;99.90;;;;;;6221424;23;20614;-81
2022/02/14 00:38:11;;;;;;;9.50;8.27;;;0.00;99.90;;;;;;6249352;23;20149;-80
2022/02/14 00:40:37;;;;;;;11.00;8.97;;;-0.10;99.90;;;;;;6223621;23;20150;-81
2022/02/14 00:43:04;;;;;;;9.63;8.63;;;-0.10;99.90;;;;;;6222037;23;20200;-81
2022/02/14 00:45:30;;;;;;;9.90;8.53;;;-0.20;99.90;;;;;;6249028;23;20482;-80
2022/02/14 00:47:56;;;;;;;10.50;8.80;;;-0.30;99.90;;;;;;6249159;23;20172;-79
2022/02/14 00:50:21;;;;;;;12.30;9.03;;;-0.50;99.90;;;;;;6222388;23;20153;-80
2022/02/14 00:52:47;;;;;;;10.10;8.03;;;-0.50;99.90;;;;;;6249392;23;20200;-80
2022/02/14 00:55:15;;;;;;;10.63;8.20;;;-0.50;99.90;;;;;;6249743;23;20146;-80
2022/02/14 00:57:41;;;;;;;8.50;7.60;;;-0.40;99.90;;;;;;6249167;23;20170;-81
2022/02/14 01:00:12;;;;;;;10.20;8.43;;;-0.40;99.90;;;;;;6249051;23;20264;-81
2022/02/14 01:02:39;;;;;;;15.00;9.30;;;-0.30;99.90;;;;;;6222770;23;20181;-81
2022/02/14 01:05:06;;;;;;;10.93;9.07;;;-0.30;99.90;;;;;;6249530;23;20553;-81
2022/02/14 01:07:32;;;;;;;10.50;8.63;;;-0.30;99.90;;;;;;6248436;23;20172;-80
2022/02/14 01:10:00;;;;;;;10.83;8.87;;;-0.20;99.90;;;;;;6248458;23;20149;-79
2022/02/14 01:12:26;;;;;;;10.00;9.00;;;-0.20;99.90;;;;;;6249671;23;20226;-81
2022/02/14 01:14:52;;;;;;;10.03;8.90;;;-0.20;99.90;;;;;;6249943;23;20201;-81
2022/02/14 01:17:18;;;;;;;11.97;8.50;;;-0.30;99.90;;;;;;6249076;23;20169;-80
2022/02/14 01:19:44;;;;;;;9.97;8.70;;;-0.20;99.90;;;;;;6222841;23;20232;-81
2022/02/14 01:22:10;;;;;;;10.13;8.97;;;-0.20;99.90;;;;;;6249090;23;20146;-81
2022/02/14 01:24:36;;;;;;;10.53;8.20;;;-0.30;99.90;;;;;;6249301;23;20149;-81
2022/02/14 01:27:05;;;;;;;13.70;9.63;;;-0.30;99.90;;;;;;6241441;22;20257;-81
2022/02/14 01:29:32;;;;;;;11.33;9.40;;;-0.30;99.90;;;;;;6254590;22;20153;-80
2022/02/14 01:31:58;;;;;;;8.90;7.67;;;-0.30;99.90;;;;;;6282071;22;20172;-80
2022/02/14 01:34:23;;;;;;;12.17;9.73;;;-0.40;99.90;;;;;;6282378;22;20482;-79
2022/02/14 01:36:49;;;;;;;11.33;8.40;;;-0.50;99.90;;;;;;6281581;22;20194;-81
2022/02/14 01:39:15;;;;;;;9.10;8.20;;;-0.50;99.90;;;;;;6282707;22;20140;-81
2022/02/14 01:41:41;;;;;;;10.57;8.20;;;-0.60;99.90;;;;;;6282714;22;20179;-80
2022/02/14 01:44:29;;;;;;;12.10;9.00;;;-0.50;99.90;;;;;;6282663;22;20202;-80
2022/02/14 01:46:55;;;;;;;10.50;8.30;;;-0.50;99.90;;;;;;6281517;22;20225;-80
2022/02/14 01:49:21;;;;;;;11.10;9.13;;;-0.50;99.90;;;;;;6282041;22;20545;-80
2022/02/14 01:51:46;;;;;;;12.13;9.57;;;-0.50;99.90;;;;;;6253952;22;20203;-80
2022/02/14 01:54:12;;;;;;;9.90;8.87;;;-0.50;99.90;;;;;;6281694;22;20145;-80
2022/02/14 01:56:40;;;;;;;9.87;8.87;;;-0.60;99.90;;;;;;6281910;22;20476;-81
2022/02/14 01:59:06;;;;;;;11.80;9.23;;;-0.60;99.90;;;;;;6281618;22;20589;-81
2022/02/14 02:01:32;;;;;;;10.57;8.70;;;-0.70;99.90;;;;;;6281558;22;20231;-81
2022/02/14 02:03:57;;;;;;;11.00;9.63;;;-0.70;99.90;;;;;;6281226;22;20418;-81
2022/02/14 02:06:23;;;;;;;16.53;9.83;;;-0.70;99.90;;;;;;6253847;22;20503;-80
2022/02/14 02:08:49;;;;;;;11.10;8.37;;;-0.60;99.90;;;;;;6280741;22;20159;-80
2022/02/14 02:14:00;;;;;;;12.77;9.37;;;-0.60;99.90;;;;;;6278781;22;20182;-81
2022/02/14 02:16:26;;;;;;;11.37;8.60;;;-0.60;99.90;;;;;;6278557;22;20160;-82
2022/02/14 02:18:51;;;;;;;13.00;8.90;;;-0.60;99.90;;;;;;6278618;22;20141;-80
2022/02/14 02:21:17;;;;;;;12.97;9.07;;;-0.70;99.90;;;;;;6278720;22;20162;-80
2022/02/14 02:23:47;;;;;;;10.63;8.00;;;-0.70;99.90;;;;;;6278657;22;20156;-81
2022/02/14 02:26:13;;;;;;;11.40;9.30;;;-0.70;99.90;;;;;;6251242;22;20221;-81
2022/02/14 02:28:38;;;;;;;11.10;8.70;;;-0.60;99.90;;;;;;6280241;22;20231;-80
2022/02/14 02:31:05;;;;;;;10.47;8.37;;;-0.70;99.90;;;;;;6286386;22;20187;-84
2022/02/14 02:33:32;;;;;;;11.03;8.73;;;-0.60;99.90;;;;;;6285990;22;20212;-80
2022/02/14 02:36:04;;;;;;;11.80;8.40;;;-0.60;99.90;;;;;;6287205;22;20238;-80
2022/02/14 02:38:31;;;;;;;11.27;9.30;;;-0.60;99.90;;;;;;6281597;22;20144;-81
2022/02/14 02:40:56;;;;;;;12.20;9.53;;;-0.60;99.90;;;;;;6282311;22;20156;-84
2022/02/14 02:43:23;;;;;;;10.17;8.87;;;-0.70;99.90;;;;;;6282537;22;20490;-81
2022/02/14 02:45:57;;;;;;;9.77;8.77;;;-0.70;99.90;;;;;;6283525;22;20175;-81
2022/02/14 02:48:23;;;;;;;10.50;9.40;;;-0.60;99.90;;;;;;6255175;22;20662;-80
2022/02/14 02:51:02;;;;;;;9.47;8.10;;;-0.80;99.90;;;;;;6254629;22;20166;-79
2022/02/14 02:53:28;;;;;;;10.13;9.13;;;-0.80;99.90;;;;;;6282199;22;20136;-79
2022/02/14 02:55:54;;;;;;;10.30;8.93;;;-0.80;99.90;;;;;;6282153;22;20164;-80
2022/02/14 02:58:20;;;;;;;11.07;8.57;;;-0.70;99.90;;;;;;6254707;22;20148;-80
2022/02/14 03:00:47;;;;;;;10.37;8.53;;;-1.00;99.90;;;;;;6280866;22;20518;-79
2022/02/14 03:03:13;;;;;;;10.67;8.90;;;-1.00;99.90;;;;;;6282192;22;20151;-80
2022/02/14 03:05:38;;;;;;;11.23;9.00;;;-0.50;99.90;;;;;;6281058;22;20476;-80
2022/02/14 03:08:04;;;;;;;9.63;8.40;;;-1.00;99.90;;;;;;6281607;22;20227;-79
2022/02/14 03:10:30;;;;;;;11.00;8.77;;;-1.00;99.90;;;;;;6281843;22;20257;-79
2022/02/14 03:12:56;;;;;;;13.67;9.63;;;-1.00;99.90;;;;;;6253885;22;20176;-79
2022/02/14 03:15:22;;;;;;;12.63;8.93;;;-1.00;99.90;;;;;;6282029;22;20183;-81
2022/02/14 03:17:48;;;;;;;9.90;8.63;;;-0.80;99.90;;;;;;6281271;22;20178;-79
2022/02/14 03:20:14;;;;;;;10.23;9.20;;;-0.90;99.90;;;;;;6280767;22;20528;-82
2022/02/14 03:22:39;;;;;;;11.97;8.53;;;-0.90;99.90;;;;;;6252084;22;20160;-79
2022/02/14 03:25:06;;;;;;;12.80;9.07;;;-0.90;99.90;;;;;;6252157;22;20159;-79
2022/02/14 03:27:32;;;;;;;11.93;9.37;;;-0.90;99.90;;;;;;6255705;22;20346;-80
2022/02/14 03:29:58;;;;;;;10.47;8.50;;;-1.00;99.90;;;;;;6250099;23;20153;-80
2022/02/14 03:32:24;;;;;;;10.40;8.97;;;-1.00;99.90;;;;;;6249260;23;20169;-80
2022/02/14 03:34:49;;;;;;;13.50;9.47;;;-1.10;99.90;;;;;;6250527;23;20156;-80
2022/02/14 03:37:15;;;;;;;12.07;8.97;;;-1.10;99.90;;;;;;6249966;23;20168;-80
2022/02/14 03:39:41;;;;;;;15.17;10.23;;;-1.10;99.90;;;;;;6249730;23;20145;-79
2022/02/14 03:42:06;;;;;;;14.47;10.90;;;-1.00;99.90;;;;;;6250702;23;20156;-80
2022/02/14 03:44:32;;;;;;;13.03;10.27;;;-1.00;99.90;;;;;;6250014;23;20198;-80
2022/02/14 03:46:58;;;;;;;13.60;10.07;;;-1.00;99.90;;;;;;6250758;23;20200;-80
2022/02/14 03:49:24;;;;;;;12.73;9.63;;;-1.00;99.90;;;;;;6224017;23;20589;-80
2022/02/14 03:51:49;;;;;;;12.10;9.33;;;-1.00;99.90;;;;;;6249729;23;20648;-79
2022/02/14 03:54:15;;;;;;;11.50;9.60;;;-1.00;99.90;;;;;;6250508;23;20145;-80
2022/02/14 03:56:41;;;;;;;11.00;8.93;;;-1.00;99.90;;;;;;6250606;23;20167;-80
2022/02/14 03:59:06;;;;;;;9.93;8.87;;;-1.00;99.90;;;;;;6251324;23;20202;-79
2022/02/14 04:01:32;;;;;;;14.93;9.80;;;-1.00;99.90;;;;;;6250123;23;20660;-80
2022/02/14 04:03:58;;;;;;;11.73;9.50;;;-1.00;99.90;;;;;;6249412;23;20605;-80
2022/02/14 04:06:23;;;;;;;13.87;9.83;;;-1.00;99.90;;;;;;6222775;23;20267;-80
2022/02/14 04:08:49;;;;;;;12.37;9.63;;;-1.00;99.90;;;;;;6250003;23;20188;-80
2022/02/14 04:11:14;;;;;;;12.30;9.10;;;-0.90;99.90;;;;;;6251246;23;20226;-80
2022/02/14 04:13:40;;;;;;;11.97;9.63;;;-1.00;99.90;;;;;;6252249;23;20175;-80
2022/02/14 04:16:06;;;;;;;14.27;10.37;;;-1.00;99.90;;;;;;6252623;23;20165;-80
2022/02/14 04:18:31;;;;;;;13.90;10.63;;;-1.10;99.90;;;;;;6252728;23;20171;-79
2022/02/14 04:20:57;;;;;;;14.50;10.17;;;-1.10;99.90;;;;;;6252493;23;20518;-80
2022/02/14 04:23:23;;;;;;;11.10;10.00;;;-1.10;99.90;;;;;;6252104;23;20229;-80
2022/02/14 04:25:48;;;;;;;13.73;11.00;;;-1.10;99.90;;;;;;6251648;22;20238;-80
2022/02/14 04:28:14;;;;;;;13.77;10.10;;;-1.10;99.90;;;;;;6251940;23;20203;-80
2022/02/14 04:30:40;;;;;;;14.13;9.87;;;-1.00;99.90;;;;;;6225361;23;20610;-80
2022/02/14 04:33:06;;;;;;;12.80;9.50;;;-1.00;99.90;;;;;;6253287;23;20149;-81
2022/02/14 04:35:32;;;;;;;11.13;8.87;;;-1.00;99.90;;;;;;6225895;23;20153;-80
2022/02/14 04:37:59;;;;;;;12.57;11.00;;;-1.10;99.90;;;;;;6226120;23;20610;-80
2022/02/14 04:40:31;;;;;;;11.57;9.93;;;-1.10;99.90;;;;;;6225844;23;20152;-80
2022/02/14 04:43:00;;;;;;;10.00;9.00;;;-1.10;99.90;;;;;;6201186;23;20159;-80
2022/02/14 04:45:26;;;;;;;13.43;10.17;;;-1.20;99.90;;;;;;6251982;23;20149;-80
2022/02/14 04:47:53;;;;;;;11.53;9.53;;;-1.20;99.90;;;;;;6226011;23;20561;-80
2022/02/14 04:50:19;;;;;;;13.90;10.17;;;-1.20;99.90;;;;;;6225306;23;20619;-80
2022/02/14 04:52:45;;;;;;;13.47;9.90;;;-1.40;99.90;;;;;;6252203;23;20189;-80
2022/02/14 04:55:11;;;;;;;13.30;10.00;;;-1.60;99.90;;;;;;6225138;23;20228;-81
2022/02/14 04:57:37;;;;;;;12.10;9.17;;;-1.60;99.90;;;;;;6224969;23;20203;-80
2022/02/14 05:00:06;;;;;;;12.47;9.53;;;-1.70;99.90;;;;;;6252049;23;20145;-80
2022/02/14 05:02:32;;;;;;;11.40;9.03;;;-1.60;99.90;;;;;;6223560;23;20160;-80
2022/02/14 05:04:58;;;;;;;14.17;10.10;;;-1.50;99.90;;;;;;6224667;23;20153;-80
2022/02/14 05:07:23;;;;;;;13.40;9.80;;;-1.50;99.90;;;;;;6250951;23;20260;-81
2022/02/14 05:09:49;;;;;;;11.37;9.33;;;-1.40;99.90;;;;;;6223552;23;20153;-81
2022/02/14 05:12:14;;;;;;;11.27;9.37;;;-1.40;99.90;;;;;;6223550;23;20177;-80
2022/02/14 05:15:39;;;;;;;12.57;9.53;;;-1.30;99.90;;;;;;6252214;23;20142;-80
2022/02/14 05:18:05;;;;;;;13.57;10.10;;;-1.30;99.90;;;;;;6225853;23;20152;-80
2022/02/14 05:23:57;;;;;;;12.47;9.43;;;-1.40;99.90;;;;;;6121897;23;20204;-80
2022/02/14 05:26:23;;;;;;;11.97;9.43;;;-1.40;99.90;;;;;;6237862;22;20188;-80
2022/02/14 05:28:54;;;;;;;12.47;9.37;;;-1.40;99.90;;;;;;6282932;22;20152;-80
2022/02/14 05:31:21;;;;;;;11.67;9.40;;;-1.50;99.90;;;;;;6282195;22;20172;-80
2022/02/14 05:33:47;;;;;;;14.17;9.60;;;-1.60;99.90;;;;;;6282436;22;20152;-80
2022/02/14 05:36:12;;;;;;;12.33;9.43;;;-1.80;99.90;;;;;;6229594;22;20207;-80
2022/02/14 05:38:38;;;;;;;12.20;9.70;;;-1.70;99.90;;;;;;6281776;22;20180;-80
2022/02/14 05:41:03;;;;;;;14.17;10.27;;;-1.70;99.90;;;;;;6282150;22;20159;-79
2022/02/14 05:43:29;;;;;;;12.30;9.53;;;-1.70;99.90;;;;;;6281902;22;20237;-79
2022/02/14 05:45:55;;;;;;;11.33;9.83;;;-1.70;99.90;;;;;;6254747;22;20184;-80
2022/02/14 05:48:26;;;;;;;12.73;9.00;;;-1.60;99.90;;;;;;6281754;22;20160;-80
2022/02/14 05:50:52;;;;;;;14.13;9.93;;;-1.60;99.90;;;;;;6280735;22;20136;-79
2022/02/14 05:53:18;;;;;;;12.90;9.43;;;-1.60;99.90;;;;;;6281352;22;20149;-80
2022/02/14 05:55:43;;;;;;;11.97;9.67;;;-1.60;99.90;;;;;;6253128;22;20169;-79
2022/02/14 05:58:09;;;;;;;13.47;9.77;;;-1.50;99.90;;;;;;6280670;22;20148;-79
2022/02/14 06:00:35;;;;;;;13.47;10.40;;;-1.50;99.90;;;;;;6280743;22;20151;-79
2022/02/14 06:03:00;;;;;;;11.40;9.33;;;-1.50;99.90;;;;;;6281242;22;20145;-80
2022/02/14 06:05:26;;;;;;;17.13;9.83;;;-1.50;99.90;;;;;;6281270;22;20148;-80
2022/02/14 06:07:52;;;;;;;13.83;10.00;;;-1.50;99.90;;;;;;6253748;22;20467;-80
2022/02/14 06:10:17;;;;;;;12.80;9.70;;;-1.50;99.90;;;;;;6281462;22;20649;-79
2022/02/14 06:12:44;;;;;;;11.47;9.03;;;-1.50;99.90;;;;;;6281254;22;20180;-79
2022/02/14 06:15:10;;;;;;;12.70;9.37;;;-1.60;99.90;;;;;;6281092;22;20154;-80
2022/02/14 06:17:36;;;;;;;12.00;10.07;;;-1.60;99.90;;;;;;6279693;22;20201;-80
2022/02/14 06:20:01;;;;;;;11.60;9.33;;;-1.50;99.90;;;;;;6280182;22;20152;-81
2022/02/14 06:22:27;;;;;;;13.53;9.37;;;-1.50;99.90;;;;;;6279440;22;20156;-80
2022/02/14 06:24:53;;;;;;;11.20;9.60;;;-1.50;99.90;;;;;;6281257;22;20160;-79
2022/02/14 06:27:19;;;;;;;13.53;9.30;;;-1.50;99.90;;;;;;6257544;22;20192;-79
2022/02/14 06:29:45;;;;;;;11.17;8.97;;;-1.60;99.90;;;;;;6250385;23;20668;-82
2022/02/14 06:32:11;;;;;;;14.77;10.10;;;-1.70;99.90;;;;;;6223861;23;20180;-79
2022/02/14 06:34:36;;;;;;;14.57;9.50;;;-1.70;99.90;;;;;;6251187;23;20144;-80
2022/02/14 06:37:02;;;;;;;14.23;9.30;;;-1.60;99.90;;;;;;6250684;23;20259;-80
2022/02/14 06:39:28;;;;;;;10.57;9.47;;;-1.60;99.90;;;;;;6250245;23;20155;-80
2022/02/14 06:41:53;;;;;;;13.87;9.67;;;-1.60;99.90;;;;;;6248789;23;20149;-79
2022/02/14 06:44:19;;;;;;;12.63;9.30;;;-1.60;99.90;;;;;;6248006;23;20161;-79
2022/02/14 06:46:45;;;;;;;14.27;9.27;;;-1.60;99.90;;;;;;6245382;23;20254;-79
2022/02/14 06:49:10;;;;;;;12.43;9.40;;;-1.50;99.90;;;;;;6247037;23;20171;-79
2022/02/14 06:51:36;;;;;;;12.10;8.97;;;-1.60;99.90;;;;;;6246130;23;20177;-81
2022/02/14 06:54:03;;;;;;;12.70;9.07;;;-1.50;99.90;;;;;;6219420;23;20156;-80
2022/02/14 06:56:28;;;;;;;13.23;9.07;;;-1.50;99.90;;;;;;6248794;23;20169;-79
2022/02/14 06:58:54;;;;;;;13.97;8.80;;;-1.50;99.90;;;;;;6225305;23;20176;-80
2022/02/14 07:01:20;;;;;;;18.80;9.33;;;-1.40;99.90;;;;;;6251840;23;20211;-80
2022/02/14 07:03:45;;;;;;;11.33;8.43;;;-1.40;99.90;;;;;;6246720;23;20206;-82
2022/02/14 07:06:11;;;;;;;10.37;8.97;;;-1.40;99.90;;;;;;6248690;23;20165;-80
2022/02/14 07:08:37;;;;;;;11.73;8.83;;;-1.40;99.90;;;;;;6248175;23;20157;-80
2022/02/14 07:11:02;;;;;;;12.03;9.00;;;-1.40;99.90;;;;;;6220216;23;20161;-80
2022/02/14 07:13:28;;;;;;;10.17;8.60;;;-1.40;99.90;;;;;;6220743;23;20156;-82
2022/02/14 07:15:54;;;;;;;10.20;8.67;;;-1.30;99.90;;;;;;6220604;23;20164;-81
2022/02/14 07:18:20;;;;;;;13.30;9.17;;;-1.30;99.90;;;;;;6247737;23;20153;-81
2022/02/14 07:20:46;;;;;;;10.40;8.77;;;-1.30;99.90;;;;;;6247472;23;20591;-80
2022/02/14 07:23:12;;;;;;;11.20;8.70;;;-1.30;99.90;;;;;;6246973;23;20171;-80
2022/02/14 07:25:38;;;;;;;14.50;10.03;;;-1.30;99.90;;;;;;6247567;22;20153;-79
2022/02/14 07:28:04;;;;;;;16.00;10.30;;;-1.20;99.90;;;;;;6247837;23;20130;-81
2022/02/14 07:30:30;;;;;;;12.53;9.97;;;-1.20;99.90;;;;;;6249932;23;20337;-80
2022/02/14 07:32:55;;;;;;;11.43;9.20;;;-1.10;99.90;;;;;;6247420;23;20630;-80
2022/02/14 07:35:21;;;;;;;12.97;10.67;;;-1.10;99.90;;;;;;6247755;23;20149;-81
2022/02/14 07:37:47;;;;;;;11.53;9.37;;;-1.00;99.90;;;;;;6248340;23;20167;-80
2022/02/14 07:40:14;;;;;;;10.17;8.83;;;-1.00;99.90;;;;;;6248096;23;20149;-81
2022/02/14 07:42:40;;;;;;;13.33;9.13;;;-1.00;99.90;;;;;;6247077;23;20214;-81
2022/02/14 07:45:07;;;;;;;11.70;9.50;;;-0.90;99.90;;;;;;6247296;23;20149;-80
2022/02/14 07:47:33;;;;;;;11.63;9.50;;;-0.90;99.90;;;;;;6247310;23;20626;-80
2022/02/14 07:49:59;;;;;;;13.70;9.73;;;-0.80;99.90;;;;;;6247707;23;20227;-80
2022/02/14 07:52:25;;;;;;;11.10;9.03;;;-0.80;99.90;;;;;;6247153;23;20180;-80
2022/02/14 07:54:51;;;;;;;10.70;8.97;;;-0.70;99.90;;;;;;6222137;23;20531;-81
2022/02/14 07:57:17;;;;;;;15.23;9.07;;;-0.70;99.90;;;;;;6247937;23;20165;-80
2022/02/14 07:59:43;;;;;;;14.00;10.07;;;-0.60;99.90;;;;;;6248291;23;20148;-80
2022/02/14 08:02:09;;;;;;;15.30;11.50;;;-0.50;99.90;;;;;;6248342;23;20153;-81
2022/02/14 08:04:34;;;;;;;13.33;10.10;;;-0.50;99.90;;;;;;6247936;23;20613;-80
2022/02/14 08:07:04;;;;;;;18.00;11.27;;;-0.40;99.90;;;;;;6221604;23;20223;-81
2022/02/14 08:09:30;;;;;;;17.20;11.70;;;-0.40;99.90;;;;;;6248266;23;20156;-80
2022/02/14 08:11:56;;;;;;;17.13;11.67;;;-0.10;99.90;;;;;;6246289;23;20177;-81
2022/02/14 08:14:22;;;;;;;12.70;11.40;;;-0.30;99.90;;;;;;6220198;23;20172;-80
2022/02/14 08:16:48;;;;;;;12.23;9.93;;;-0.30;99.90;;;;;;6220037;23;20173;-79
2022/02/14 08:19:13;;;;;;;13.67;9.70;;;-0.30;99.90;;;;;;6220811;23;20159;-80
2022/02/14 08:21:39;;;;;;;11.10;9.10;;;-0.20;99.90;;;;;;6247575;23;20596;-80
2022/02/14 08:24:05;;;;;;;12.47;8.83;;;-0.10;99.90;;;;;;6247024;23;20181;-80
2022/02/14 08:26:34;;;;;;;12.03;9.50;;;-0.10;99.90;;;;;;6231773;22;20184;-80
2022/02/14 08:29:01;;;;;;;16.13;10.33;;;0.00;99.90;;;;;;6280923;22;20516;-81
2022/02/14 08:31:28;;;;;;;17.37;10.23;;;0.10;99.90;;;;;;6277612;22;20172;-82
2022/02/14 08:33:55;;;;;;;19.33;10.73;;;0.30;99.90;;;;;;6278037;22;20164;-82
2022/02/14 08:36:21;;;;;;;13.57;9.53;;;0.40;99.90;;;;;;6278672;22;20165;-82
2022/02/14 08:38:47;;;;;;;10.47;9.37;;;0.60;99.90;;;;;;6279433;22;20243;-81
2022/02/14 08:41:13;;;;;;;12.63;9.40;;;0.60;99.90;;;;;;6280708;22;20153;-81
2022/02/14 08:43:39;;;;;;;9.80;8.87;;;0.80;99.90;;;;;;6254871;22;20156;-82
2022/02/14 08:46:05;;;;;;;9.80;8.07;;;1.00;99.90;;;;;;6252650;22;20280;-81
2022/02/14 08:48:30;;;;;;;11.53;8.80;;;1.10;99.90;;;;;;6280127;22;20233;-82
2022/02/14 08:50:56;;;;;;;11.00;9.90;;;1.20;99.90;;;;;;6278550;22;20586;-81
2022/02/14 08:53:23;;;;;;;11.23;10.10;;;1.60;99.90;;;;;;6252094;22;20154;-82
2022/02/14 08:55:49;;;;;;;16.97;10.33;;;1.60;99.90;;;;;;6251990;22;20645;-82
2022/02/14 08:58:15;;;;;;;12.03;10.53;;;1.40;99.90;;;;;;6280231;22;20140;-82
2022/02/14 09:00:40;;;;;;;15.67;10.43;;;1.60;99.90;;;;;;6254791;22;20152;-81
2022/02/14 09:03:06;;;;;;;11.37;10.17;;;1.70;99.90;;;;;;6283941;22;20153;-81
2022/02/14 09:05:32;;;;;;;14.03;10.47;;;1.70;99.90;;;;;;6281513;22;20577;-81
2022/02/14 09:07:58;;;;;;;13.50;10.33;;;1.80;99.90;;;;;;6281130;22;20224;-81
2022/02/14 09:10:24;;;;;;;15.20;10.73;;;2.00;99.90;;;;;;6253923;22;20163;-80
2022/02/14 09:12:50;;;;;;;19.73;12.27;;;2.00;99.90;;;;;;6281006;22;20176;-80
2022/02/14 09:15:16;;;;;;;18.83;12.07;;;2.10;99.90;;;;;;6280494;22;20636;-82
2022/02/14 09:17:42;;;;;;;17.40;11.73;;;2.20;99.90;;;;;;6281136;22;20166;-82
2022/02/14 09:20:09;;;;;;;20.80;13.00;;;2.20;99.90;;;;;;6281097;22;20477;-81
2022/02/14 09:22:34;;;;;;;21.83;13.83;;;2.30;99.90;;;;;;6281195;22;20228;-81
2022/02/14 09:25:00;;;;;;;24.63;14.90;;;2.40;99.90;;;;;;6280875;22;20664;-80
2022/02/14 09:27:26;;;;;;;24.77;14.30;;;2.50;99.90;;;;;;6258702;22;20191;-81
2022/02/14 09:29:51;;;;;;;19.23;13.50;;;2.50;99.90;;;;;;6250857;23;20146;-81
2022/02/14 09:32:17;;;;;;;23.63;14.17;;;2.50;99.90;;;;;;6250907;23;20186;-81
2022/02/14 09:34:43;;;;;;;16.40;11.67;;;2.70;99.90;;;;;;6250011;23;20204;-81
2022/02/14 09:37:12;;;;;;;22.57;13.37;;;2.80;99.90;;;;;;6250880;23;20178;-83
2022/02/14 09:39:38;;;;;;;19.90;12.63;;;3.00;99.90;;;;;;6250846;23;20155;-81
2022/02/14 09:42:05;;;;;;;20.43;12.43;;;3.10;99.90;;;;;;6249838;23;20236;-81
2022/02/14 09:44:31;;;;;;;13.97;11.90;;;3.20;99.90;;;;;;6250184;23;20159;-83
2022/02/14 09:46:57;;;;;;;19.07;12.50;;;3.30;99.90;;;;;;6223371;23;20189;-81
2022/02/14 09:49:24;;;;;;;17.93;12.27;;;3.40;99.90;;;;;;6249964;23;20158;-81
2022/02/14 09:51:53;;;;;;;16.17;11.50;;;3.40;99.90;;;;;;6248976;23;20684;-82
2022/02/14 09:54:18;;;;;;;18.27;11.57;;;3.40;99.90;;;;;;6249055;23;20147;-82
2022/02/14 09:56:44;;;;;;;12.63;10.80;;;3.60;99.90;;;;;;6222951;23;20179;-82
2022/02/14 09:59:10;;;;;;;15.87;10.90;;;3.60;99.90;;;;;;6249813;23;20212;-82
2022/02/14 10:01:36;;;;;;;12.17;10.13;;;;;;;;;;6248791;23;20197;-81
2022/02/14 10:04:02;;;;;;;18.30;10.20;;;3.90;99.90;;;;;;6249340;23;20243;-82
2022/02/14 10:06:40;;;;;;;16.17;10.33;;;4.00;99.90;;;;;;6247127;23;20171;-81
2022/02/14 10:09:13;;;;;;;11.07;9.03;;;4.00;99.90;;;;;;6221311;23;20150;-82
2022/02/14 10:12:09;;;;;;;15.23;10.57;;;4.40;99.90;;;;;;6221537;23;20171;-81
2022/02/14 10:14:36;;;;;;;13.73;10.07;;;;;;;;;;6248407;23;20149;-82
2022/02/14 10:17:18;;;;;;;14.83;10.00;;;;;;;;;;6247954;23;20507;-82
2022/02/14 10:20:00;;;;;;;16.77;9.63;;;;;;;;;;6248875;23;20132;-81
2022/02/14 10:22:26;;;;;;;12.83;9.57;;;;;;;;;;6247782;23;20613;-81
2022/02/14 10:24:52;;;;;;;19.23;11.57;;;;;;;;;;6247880;23;20148;-81
2022/02/14 10:27:29;;;;;;;11.60;9.37;;;;;;;;;;6247671;22;20184;-82
2022/02/14 10:30:06;;;;;;;15.80;10.83;;;;;;;;;;6248587;23;20149;-81
2022/02/14 10:32:32;;;;;;;20.03;10.93;;;;;;;;;;6220355;23;20520;-82
2022/02/14 10:34:59;;;;;;;15.63;10.87;;;;;;;;;;6247654;23;20185;-82
2022/02/14 10:37:39;;;;;;;21.00;11.43;;;;;;;;;;6247578;23;20222;-81
2022/02/14 10:40:05;;;;;;;20.70;10.83;;;;;;;;;;6220569;23;20167;-82
2022/02/14 10:42:38;;;;;;;19.77;11.83;;;;;;;;;;6220874;23;20167;-81
2022/02/14 10:45:08;;;;;;;15.80;11.60;;;;;;;;;;6250522;23;20240;-81
2022/02/14 10:47:46;;;;;;;19.33;11.37;;;;;;;;;;6246585;23;20543;-81
2022/02/14 10:50:12;;;;;;;16.60;12.27;;;;;;;;;;6247255;23;20593;-81
2022/02/14 10:52:45;;;;;;;22.13;11.63;;;;;;;;;;6247116;23;20173;-84
2022/02/14 10:55:13;;;;;;;14.60;11.63;;;;;;;;;;6247723;23;20442;-81
2022/02/14 10:57:40;;;;;;;18.83;12.60;;;;;;;;;;6220268;23;20630;-81
2022/02/14 11:00:10;;;;;;;25.87;15.57;;;;;;;;;;6220429;23;20154;-81
2022/02/14 11:02:37;;;;;;;31.40;15.93;;;;;;;;;;6247450;23;20153;-83
2022/02/14 11:05:04;;;;;;;25.63;15.33;;;;;;;;;;6247869;23;20156;-81
2022/02/14 11:07:31;;;;;;;25.87;15.07;;;;;;;;;;6247671;23;20176;-83
2022/02/14 11:09:59;;;;;;;23.97;15.37;;;;;;;;;;6247395;23;20186;-81
2022/02/14 11:12:29;;;;;;;22.07;14.37;;;;;;;;;;6247679;23;20180;-83
2022/02/14 11:14:56;;;;;;;20.77;13.87;;;;;;;;;;6247568;23;20232;-81
2022/02/14 11:17:26;;;;;;;21.07;13.70;;;;;;;;;;6248017;23;20225;-81
2022/02/14 11:19:56;;;;;;;26.87;15.93;;;;;;;;;;6220158;23;20161;-81
2022/02/14 11:22:25;;;;;;;23.33;14.77;;;;;;;;;;6247435;23;20488;-83
2022/02/14 11:24:55;;;;;;;22.57;13.80;;;;;;;;;;6247705;23;20226;-82
2022/02/14 11:27:24;;;;;;;29.07;15.03;;;;;;;;;;6242573;22;20664;-82
2022/02/14 11:29:55;;;;;;;23.63;14.00;;;;;;;;;;6279088;22;20250;-82
2022/02/14 11:32:28;;;;;;;23.00;14.07;;;;;;;;;;6278436;22;20180;-84
2022/02/14 11:35:01;;;;;;;25.53;13.27;;;;;;;;;;6277155;22;20144;-82
2022/02/14 11:37:46;;;;;;;22.10;12.93;;;;;;;;;;6277217;22;20195;-80
2022/02/14 11:40:32;;;;;;;20.80;12.23;;;;;;;;;;6277433;22;20597;-82
2022/02/14 11:43:22;;;;;;;19.67;10.73;;;;;;;;;;6278503;22;20174;-82
2022/02/14 11:46:07;;;;;;;16.93;11.53;;;;;;;;;;6277322;22;20167;-81
2022/02/14 11:48:33;;;;;;;20.57;12.77;;;;;;;;;;6277378;22;20209;-82
2022/02/14 11:51:17;;;;;;;21.60;13.00;;;;;;;;;;6251105;22;20239;-81
2022/02/14 11:53:47;;;;;;;20.23;12.90;;;;;;;;;;6279378;22;20140;-80
2022/02/14 11:56:24;;;;;;;23.77;12.77;;;;;;;;;;6278920;22;20164;-81
2022/02/14 11:59:01;;;;;;;19.27;11.90;;;;;;;;;;6278776;22;20219;-80
2022/02/14 12:01:30;;;;;;;19.07;12.53;;;;;;;;;;6252099;22;20186;-80
2022/02/14 12:04:15;;;;;;;18.40;12.47;;;;;;;;;;6279332;22;20501;-81
2022/02/14 12:06:59;;;;;;;24.07;12.90;;;;;;;;;;6279235;22;20223;-80
2022/02/14 12:09:25;;;;;;;15.70;10.93;;;;;;;;;;6248944;22;20191;-80
2022/02/14 12:11:54;;;;;;;19.87;11.63;;;;;;;;;;6277309;22;20211;-80
2022/02/14 12:14:21;;;;;;;18.93;11.60;;;;;;;;;;6278354;22;20149;-81
2022/02/14 12:22:41;;;;;;;17.13;12.13;;;;;;;;;;6277984;22;20183;-81
2022/02/14 12:25:09;;;;;;;20.10;12.37;;;;;;;;;;6277043;22;20150;-82
2022/02/14 12:27:35;;;;;;;18.53;12.63;;;;;;;;;;6250653;22;20237;-82
2022/02/14 12:30:22;;;;;;;14.07;11.17;;;;;;;;;;6277569;22;20145;-82
2022/02/14 12:33:08;;;;;;;17.30;9.97;;;;;;;;;;6258614;22;20187;-82
2022/02/14 12:35:35;;;;;;;15.23;10.07;;;;;;;;;;6280003;22;20153;-81
2022/02/14 12:38:01;;;;;;;11.23;9.17;;;;;;;;;;6277861;22;20159;-80
2022/02/14 12:40:46;;;;;;;13.43;9.23;;;;;;;;;;6250974;22;20547;-83
2022/02/14 12:43:12;;;;;;;18.23;9.10;;;;;;;;;;6252096;22;20163;-82
2022/02/14 12:45:39;;;;;;;8.63;7.57;;;;;;;;;;6280446;22;20149;-82
2022/02/14 12:48:05;;;;;;;15.07;8.30;;;;;;;;;;6252888;22;20153;-81
2022/02/14 12:50:37;;;;;;;11.30;7.80;;;;;;;;;;6280097;22;20152;-82
2022/02/14 12:53:10;;;;;;;10.23;7.93;;;;;;;;;;6252259;22;20180;-82
2022/02/14 12:55:37;;;;;;;12.30;8.23;;;;;;;;;;6279831;22;20206;-82
2022/02/14 12:58:03;;;;;;;10.73;7.63;;;;;;;;;;6279825;22;20223;-82
2022/02/14 13:00:31;;;;;;;12.47;8.27;;;;;;;;;;6279565;22;20176;-81
2022/02/14 13:03:01;;;;;;;12.00;7.57;;;;;;;;;;6279670;22;20152;-82
2022/02/14 13:05:28;;;;;;;10.80;7.97;;;;;;;;;;6279330;22;20145;-83
2022/02/14 13:07:54;;;;;;;12.10;7.87;;;;;;;;;;6279278;22;20192;-81
2022/02/14 13:10:20;;;;;;;13.43;7.17;;;;;;;;;;6279142;22;20164;-83
2022/02/14 13:12:47;;;;;;;11.33;8.13;;;;;;;;;;6279173;22;20208;-83